createdAt,value
2022-10-18T00:00:33.831Z,57.55
2022-10-18T00:03:25.779Z,57.66
2022-10-18T00:05:58.204Z,57.61
2022-10-18T00:08:30.505Z,57.40
2022-10-18T00:11:02.454Z,57.61
2022-10-18T00:13:35.062Z,57.54
2022-10-18T00:16:12.260Z,57.78
2022-10-18T00:18:48.045Z,57.63
2022-10-18T00:21:22.432Z,57.81
2022-10-18T00:23:55.491Z,57.71
2022-10-18T00:26:29.364Z,57.83
2022-10-18T00:29:03.395Z,57.91
2022-10-18T00:31:36.961Z,57.87
2022-10-18T00:34:12.010Z,57.98
2022-10-18T00:36:45.331Z,58.06
2022-10-18T00:39:21.275Z,58.18
2022-10-18T00:41:53.653Z,58.34
2022-10-18T00:45:06.796Z,58.26
2022-10-18T00:47:38.630Z,58.27
2022-10-18T00:50:11.737Z,58.63
2022-10-18T00:52:48.053Z,58.58
2022-10-18T00:55:20.806Z,58.70
2022-10-18T01:00:30.297Z,58.74
2022-10-18T01:03:02.467Z,58.92
2022-10-18T01:05:38.721Z,59.09
2022-10-18T01:08:36.240Z,59.20
2022-10-18T01:11:19.676Z,59.39
2022-10-18T01:14:03.132Z,59.35
2022-10-18T01:16:40.675Z,59.24
2022-10-18T01:19:26.820Z,59.22
2022-10-18T01:22:03.981Z,59.03
2022-10-18T01:24:56.636Z,58.96
2022-10-18T01:27:37.274Z,58.88
2022-10-18T01:30:44.205Z,58.80
2022-10-18T01:33:22.971Z,58.69
2022-10-18T01:36:01.920Z,58.81
2022-10-18T01:38:37.052Z,58.94
2022-10-18T01:41:14.872Z,58.94
2022-10-18T01:43:51.448Z,59.10
2022-10-18T01:46:26.313Z,59.00
2022-10-18T01:48:59.356Z,58.94
2022-10-18T01:51:33.898Z,58.98
2022-10-18T01:54:06.520Z,58.85
2022-10-18T01:56:51.086Z,58.74
2022-10-18T01:59:39.196Z,58.69
2022-10-18T02:02:22.709Z,58.92
2022-10-18T02:05:03.279Z,58.92
2022-10-18T02:07:46.658Z,58.96
2022-10-18T02:10:31.345Z,58.86
2022-10-18T02:13:03.955Z,58.95
2022-10-18T02:15:40.195Z,59.12
2022-10-18T02:18:17.126Z,58.99
2022-10-18T02:20:49.948Z,59.11
2022-10-18T02:23:25.654Z,59.22
2022-10-18T02:25:58.017Z,59.28
2022-10-18T02:28:30.077Z,59.27
2022-10-18T02:31:04.761Z,59.35
2022-10-18T02:33:43.924Z,59.50
2022-10-18T02:36:25.142Z,59.64
2022-10-18T02:39:01.534Z,59.74
2022-10-18T02:41:34.204Z,59.86
2022-10-18T02:44:06.176Z,59.87
2022-10-18T02:46:36.786Z,59.95
2022-10-18T02:49:08.903Z,60.18
2022-10-18T02:51:40.767Z,60.27
2022-10-18T02:54:12.635Z,60.41
2022-10-18T02:56:44.499Z,60.34
2022-10-18T02:59:16.639Z,60.47
2022-10-18T03:01:48.590Z,60.50
2022-10-18T03:04:19.276Z,60.72
2022-10-18T03:06:51.442Z,60.64
2022-10-18T03:09:21.844Z,60.79
2022-10-18T03:11:53.709Z,60.80
2022-10-18T03:14:25.669Z,60.91
2022-10-18T03:16:57.751Z,60.93
2022-10-18T03:19:29.748Z,60.73
2022-10-18T03:22:00.123Z,60.96
2022-10-18T03:24:32.087Z,61.08
2022-10-18T03:27:03.855Z,61.08
2022-10-18T03:29:35.738Z,61.17
2022-10-18T03:32:08.195Z,61.38
2022-10-18T03:34:40.585Z,61.68
2022-10-18T03:37:12.507Z,61.63
2022-10-18T03:39:44.444Z,61.65
2022-10-18T03:42:16.559Z,61.82
2022-10-18T03:44:46.907Z,61.96
2022-10-18T03:47:18.697Z,62.10
2022-10-18T03:49:53.239Z,62.28
2022-10-18T03:52:33.155Z,62.35
2022-10-18T03:55:09.669Z,62.51
2022-10-18T03:57:41.584Z,62.56
2022-10-18T04:00:15.412Z,62.54
2022-10-18T04:02:50.702Z,62.50
2022-10-18T04:05:27.989Z,62.34
2022-10-18T04:08:00.561Z,62.51
2022-10-18T04:10:32.415Z,62.39
2022-10-18T04:13:04.287Z,62.50
2022-10-18T04:15:36.156Z,62.53
2022-10-18T04:18:06.947Z,62.56
2022-10-18T04:20:39.819Z,62.48
2022-10-18T04:24:22.927Z,62.52
2022-10-18T04:26:53.753Z,62.65
2022-10-18T04:29:25.851Z,62.81
2022-10-18T04:31:57.795Z,62.91
2022-10-18T04:34:29.714Z,62.96
2022-10-18T04:37:02.203Z,62.97
2022-10-18T04:39:34.158Z,62.98
2022-10-18T04:42:04.818Z,63.17
2022-10-18T04:44:36.721Z,63.20
2022-10-18T04:47:08.816Z,63.41
2022-10-18T04:49:40.822Z,63.44
2022-10-18T04:52:12.741Z,63.50
2022-10-18T04:54:44.565Z,63.59
2022-10-18T04:57:16.727Z,63.73
2022-10-18T04:59:48.701Z,63.90
2022-10-18T05:02:20.812Z,63.92
2022-10-18T05:04:53.241Z,63.97
2022-10-18T05:07:25.181Z,64.15
2022-10-18T05:09:57.104Z,64.06
2022-10-18T05:12:29.601Z,64.12
2022-10-18T05:15:01.987Z,64.20
2022-10-18T05:17:34.179Z,64.28
2022-10-18T05:20:06.956Z,64.35
2022-10-18T05:22:39.103Z,64.43
2022-10-18T05:25:10.220Z,64.49
2022-10-18T05:27:42.004Z,64.60
2022-10-18T05:30:14.688Z,64.56
2022-10-18T05:32:46.875Z,64.60
2022-10-18T05:35:17.337Z,64.63
2022-10-18T05:37:49.697Z,64.57
2022-10-18T05:40:21.566Z,64.38
2022-10-18T05:42:54.090Z,64.36
2022-10-18T05:45:24.631Z,64.40
2022-10-18T05:47:56.903Z,64.37
2022-10-18T05:50:28.783Z,64.15
2022-10-18T05:53:11.922Z,64.28
2022-10-18T05:55:44.665Z,64.10
2022-10-18T05:58:16.745Z,63.96
2022-10-18T06:00:47.123Z,63.81
2022-10-18T06:03:19.338Z,63.51
2022-10-18T06:05:52.660Z,63.51
2022-10-18T06:08:24.604Z,62.93
2022-10-18T06:10:56.966Z,62.55
2022-10-18T06:13:31.144Z,61.97
2022-10-18T06:16:05.920Z,61.52
2022-10-18T06:18:38.229Z,60.89
2022-10-18T06:21:11.045Z,60.44
2022-10-18T06:23:43.367Z,59.75
2022-10-18T06:26:15.294Z,59.16
2022-10-18T06:28:47.424Z,58.68
2022-10-18T06:31:21.312Z,58.03
2022-10-18T06:33:53.240Z,57.59
2022-10-18T06:36:23.661Z,57.42
2022-10-18T06:38:57.656Z,57.12
2022-10-18T06:41:29.506Z,56.79
2022-10-18T06:44:13.747Z,56.86
2022-10-18T06:46:47.488Z,56.55
2022-10-18T06:49:19.515Z,56.54
2022-10-18T06:51:51.411Z,56.81
2022-10-18T06:54:22.022Z,56.48
2022-10-18T06:56:56.583Z,56.28
2022-10-18T06:59:31.155Z,55.77
2022-10-18T07:02:03.533Z,55.49
2022-10-18T07:04:35.819Z,54.89
2022-10-18T07:07:08.060Z,53.90
2022-10-18T07:09:40.400Z,53.58
2022-10-18T07:12:12.382Z,52.68
2022-10-18T07:14:45.679Z,52.93
2022-10-18T07:17:17.813Z,52.19
2022-10-18T07:19:49.838Z,51.37
2022-10-18T07:22:20.067Z,51.06
2022-10-18T07:24:52.158Z,50.45
2022-10-18T07:27:24.200Z,49.80
2022-10-18T07:29:56.042Z,49.36
2022-10-18T07:32:26.348Z,48.97
2022-10-18T07:34:58.388Z,48.63
2022-10-18T07:37:30.683Z,48.19
2022-10-18T07:40:02.730Z,47.41
2022-10-18T07:42:35.501Z,47.68
2022-10-18T07:45:08.667Z,47.12
2022-10-18T07:47:41.232Z,45.91
2022-10-18T07:50:13.752Z,45.59
2022-10-18T07:52:46.106Z,45.57
2022-10-18T07:55:18.400Z,45.38
2022-10-18T07:57:50.505Z,44.97
2022-10-18T08:00:22.891Z,45.04
2022-10-18T08:02:58.342Z,44.58
2022-10-18T08:08:09.291Z,44.46
2022-10-18T08:10:41.375Z,44.47
2022-10-18T08:13:13.586Z,44.35
2022-10-18T08:15:45.715Z,43.82
2022-10-18T08:18:17.785Z,43.09
2022-10-18T08:20:49.885Z,42.93
2022-10-18T08:23:21.931Z,42.65
2022-10-18T08:25:53.783Z,42.38
2022-10-18T08:28:26.636Z,42.14
2022-10-18T08:30:58.752Z,42.64
2022-10-18T08:33:30.627Z,42.59
2022-10-18T08:36:05.823Z,42.09
2022-10-18T08:38:39.848Z,41.84
2022-10-18T08:41:31.001Z,41.19
2022-10-18T08:44:11.796Z,40.90
2022-10-18T08:46:48.767Z,40.46
2022-10-18T08:49:28.599Z,40.67
2022-10-18T08:52:00.912Z,40.33
2022-10-18T08:54:38.144Z,40.04
2022-10-18T08:57:18.117Z,40.21
2022-10-18T08:59:49.995Z,39.70
2022-10-18T09:02:34.967Z,39.65
2022-10-18T09:05:18.418Z,39.11
2022-10-18T09:08:10.330Z,37.95
2022-10-18T09:10:54.754Z,37.42
2022-10-18T09:13:57.761Z,37.52
2022-10-18T09:16:38.716Z,37.89
2022-10-18T09:19:23.222Z,37.71
2022-10-18T09:21:57.477Z,38.40
2022-10-18T09:24:37.053Z,38.69
2022-10-18T09:27:16.497Z,38.50
2022-10-18T09:29:59.864Z,38.04
2022-10-18T09:32:42.719Z,38.21
2022-10-18T09:35:19.382Z,38.19
2022-10-18T09:37:55.246Z,38.28
2022-10-18T09:40:30.234Z,37.62
2022-10-18T09:43:07.656Z,38.35
2022-10-18T09:45:44.107Z,38.37
2022-10-18T09:48:21.543Z,38.46
2022-10-18T09:50:59.343Z,38.61
2022-10-18T09:53:39.831Z,38.33
2022-10-18T09:56:16.330Z,37.94
2022-10-18T09:58:51.568Z,38.08
2022-10-18T10:01:25.646Z,38.47
2022-10-18T10:03:57.592Z,38.04
2022-10-18T10:06:31.343Z,38.11
2022-10-18T10:09:09.253Z,38.03
2022-10-18T10:11:46.384Z,38.35
2022-10-18T10:14:23.176Z,38.63
2022-10-18T10:16:57.930Z,38.18
2022-10-18T10:19:34.703Z,38.64
2022-10-18T10:22:10.946Z,39.22
2022-10-18T10:24:51.626Z,39.46
2022-10-18T10:27:30.089Z,39.83
2022-10-18T10:30:07.133Z,40.73
2022-10-18T10:32:50.309Z,40.53
2022-10-18T10:35:41.522Z,40.88
2022-10-18T10:38:28.170Z,40.95
2022-10-18T10:41:00.746Z,41.11
2022-10-18T10:43:40.051Z,41.64
2022-10-18T10:46:15.045Z,42.07
2022-10-18T10:49:00.618Z,42.20
2022-10-18T10:51:50.583Z,42.63
2022-10-18T10:54:35.449Z,42.87
2022-10-18T10:57:18.097Z,43.32
2022-10-18T10:59:52.033Z,43.71
2022-10-18T11:02:30.800Z,43.82
2022-10-18T11:05:23.384Z,44.16
2022-10-18T11:07:57.870Z,44.66
2022-10-18T11:10:35.605Z,44.84
2022-10-18T11:13:23.334Z,44.82
2022-10-18T11:16:01.946Z,44.82
2022-10-18T11:18:38.327Z,44.63
2022-10-18T11:21:15.970Z,44.95
2022-10-18T11:23:48.052Z,44.63
2022-10-18T11:26:46.216Z,45.26
2022-10-18T11:29:38.045Z,45.95
2022-10-18T11:32:19.012Z,45.38
2022-10-18T11:35:05.063Z,45.59
2022-10-18T11:37:50.646Z,45.35
2022-10-18T11:40:45.813Z,45.62
2022-10-18T11:43:30.283Z,45.90
2022-10-18T11:46:21.912Z,45.43
2022-10-18T11:49:06.990Z,45.44
2022-10-18T11:52:07.861Z,45.44
2022-10-18T11:55:04.812Z,45.94
2022-10-18T11:57:44.871Z,46.18
2022-10-18T12:00:39.493Z,46.31
2022-10-18T12:03:23.626Z,46.02
2022-10-18T12:05:58.265Z,45.64
2022-10-18T12:08:35.432Z,45.63
2022-10-18T12:11:15.507Z,46.00
2022-10-18T12:13:52.300Z,46.30
2022-10-18T12:16:45.906Z,46.64
2022-10-18T12:19:26.292Z,46.76
2022-10-18T12:22:18.333Z,46.63
2022-10-18T12:24:50.241Z,46.66
2022-10-18T12:27:34.761Z,46.49
2022-10-18T12:30:15.532Z,46.52
2022-10-18T12:33:03.425Z,46.79
2022-10-18T12:35:56.817Z,47.33
2022-10-18T12:38:32.847Z,47.55
2022-10-18T12:41:06.631Z,47.72
2022-10-18T12:43:38.484Z,47.51
2022-10-18T12:46:13.791Z,47.43
2022-10-18T12:48:51.375Z,47.67
2022-10-18T12:51:24.463Z,47.40
2022-10-18T12:54:10.622Z,47.28
2022-10-18T12:56:46.803Z,47.56
2022-10-18T12:59:43.886Z,47.53
2022-10-18T13:02:31.068Z,47.26
2022-10-18T13:05:40.953Z,47.39
2022-10-18T13:08:27.305Z,47.45
2022-10-18T13:11:38.418Z,47.91
2022-10-18T13:14:31.936Z,48.16
2022-10-18T13:17:13.590Z,48.54
2022-10-18T13:20:20.516Z,48.99
2022-10-18T13:23:11.537Z,49.34
2022-10-18T13:25:55.486Z,49.13
2022-10-18T13:28:36.595Z,49.26
2022-10-18T13:31:19.176Z,49.42
2022-10-18T13:33:51.338Z,49.72
2022-10-18T13:36:26.549Z,50.00
2022-10-18T13:39:20.073Z,50.24
2022-10-18T13:42:29.570Z,50.77
2022-10-18T13:45:32.422Z,50.99
2022-10-18T13:48:35.063Z,51.28
2022-10-18T13:51:22.379Z,51.58
2022-10-18T13:54:02.196Z,51.88
2022-10-18T13:56:47.207Z,52.01
2022-10-18T13:59:41.724Z,52.24
2022-10-18T14:02:50.665Z,52.50
2022-10-18T14:05:42.918Z,52.75
2022-10-18T14:08:18.546Z,52.84
2022-10-18T14:11:02.481Z,53.06
2022-10-18T14:13:44.044Z,53.15
2022-10-18T14:16:33.101Z,53.28
2022-10-18T14:19:17.405Z,53.34
2022-10-18T14:21:55.483Z,53.21
2022-10-18T14:24:30.150Z,52.86
2022-10-18T14:27:19.940Z,52.17
2022-10-18T14:30:08.018Z,52.06
2022-10-18T14:32:43.700Z,51.79
2022-10-18T14:35:33.650Z,51.94
2022-10-18T14:38:07.250Z,51.90
2022-10-18T14:40:41.133Z,52.04
2022-10-18T14:43:16.643Z,52.34
2022-10-18T14:45:51.137Z,52.52
2022-10-18T14:48:25.566Z,52.73
2022-10-18T14:51:00.640Z,52.91
2022-10-18T14:53:38.487Z,52.96
2022-10-18T14:56:21.507Z,53.16
2022-10-18T14:58:54.683Z,53.29
2022-10-18T15:01:30.559Z,53.49
2022-10-18T15:04:06.927Z,53.60
2022-10-18T15:06:43.408Z,53.84
2022-10-18T15:09:21.712Z,54.05
2022-10-18T15:11:57.886Z,54.30
2022-10-18T15:14:30.852Z,54.59
2022-10-18T15:17:08.939Z,54.80
2022-10-18T15:19:42.899Z,55.07
2022-10-18T15:22:31.626Z,55.30
2022-10-18T15:25:15.600Z,55.57
2022-10-18T15:27:50.387Z,55.84
2022-10-18T15:30:27.897Z,55.84
2022-10-18T15:33:02.039Z,56.26
2022-10-18T15:35:36.077Z,56.39
2022-10-18T15:38:18.613Z,56.71
2022-10-18T15:40:51.030Z,57.07
2022-10-18T15:43:39.223Z,57.24
2022-10-18T15:46:32.714Z,57.53
2022-10-18T15:49:52.274Z,58.09
2022-10-18T15:52:39.533Z,59.10
2022-10-18T15:55:47.591Z,59.83
2022-10-18T15:58:25.083Z,60.42
2022-10-18T16:01:00.096Z,60.84
2022-10-18T16:03:36.143Z,61.29
2022-10-18T16:06:12.295Z,61.34
2022-10-18T16:08:49.430Z,61.46
2022-10-18T16:11:23.167Z,61.77
2022-10-18T16:13:58.003Z,62.06
2022-10-18T16:16:32.477Z,62.75
2022-10-18T16:19:03.181Z,64.03
2022-10-18T16:21:38.066Z,65.31
2022-10-18T16:24:10.864Z,66.59
2022-10-18T16:26:42.792Z,67.07
2022-10-18T16:29:16.790Z,67.69
2022-10-18T16:31:50.955Z,68.55
2022-10-18T16:34:23.368Z,69.16
2022-10-18T16:36:56.268Z,69.48
2022-10-18T16:39:29.262Z,69.98
2022-10-18T16:42:01.282Z,70.47
2022-10-18T16:44:33.347Z,71.00
2022-10-18T16:47:04.081Z,71.72
2022-10-18T16:49:36.252Z,71.90
2022-10-18T16:52:08.294Z,72.35
2022-10-18T16:54:38.754Z,72.91
2022-10-18T16:57:13.587Z,73.05
2022-10-18T16:59:52.423Z,73.31
2022-10-18T17:02:27.043Z,73.53
2022-10-18T17:04:59.275Z,73.70
2022-10-18T17:07:33.925Z,73.94
2022-10-18T17:10:06.888Z,74.31
2022-10-18T17:12:38.913Z,74.66
2022-10-18T17:15:10.314Z,74.92
2022-10-18T17:17:46.187Z,74.98
2022-10-18T17:20:24.011Z,74.97
2022-10-18T17:22:56.559Z,73.75
2022-10-18T17:28:06.193Z,72.72
2022-10-18T17:30:39.051Z,72.75
2022-10-18T17:33:11.629Z,73.15
2022-10-18T17:35:44.395Z,73.21
2022-10-18T17:38:16.502Z,73.67
2022-10-18T17:40:49.040Z,74.04
2022-10-18T17:43:21.234Z,74.45
2022-10-18T17:45:57.273Z,74.62
2022-10-18T17:48:29.428Z,75.14
2022-10-18T17:51:01.459Z,75.94
2022-10-18T17:53:35.037Z,75.99
2022-10-18T17:56:09.072Z,76.11
2022-10-18T17:58:43.561Z,75.90
2022-10-18T18:01:18.549Z,75.87
2022-10-18T18:03:51.163Z,75.62
2022-10-18T18:06:31.659Z,75.29
2022-10-18T18:09:07.481Z,75.12
2022-10-18T18:11:44.881Z,74.79
2022-10-18T18:14:24.762Z,74.07
2022-10-18T18:17:01.510Z,74.15
2022-10-18T18:19:35.626Z,74.08
2022-10-18T18:22:08.919Z,74.33
2022-10-18T18:24:42.836Z,74.58
2022-10-18T18:27:16.316Z,75.06
2022-10-18T18:29:59.735Z,75.13
2022-10-18T18:32:49.181Z,75.15
2022-10-18T18:35:31.947Z,75.23
2022-10-18T18:38:15.802Z,75.30
2022-10-18T18:41:11.455Z,75.26
2022-10-18T18:44:57.185Z,75.75
2022-10-18T18:47:37.180Z,76.15
2022-10-18T18:50:14.465Z,76.66
2022-10-18T18:52:47.365Z,76.99
2022-10-18T18:55:21.659Z,77.70
2022-10-18T18:57:53.926Z,77.92
2022-10-18T19:00:26.104Z,78.54
2022-10-18T19:02:58.106Z,79.01
2022-10-18T19:05:32.354Z,79.18
2022-10-18T19:08:06.246Z,79.63
2022-10-18T19:10:38.401Z,80.10
2022-10-18T19:13:10.320Z,80.33
2022-10-18T19:15:43.378Z,80.61
2022-10-18T19:18:23.175Z,80.67
2022-10-18T19:21:02.394Z,81.08
2022-10-18T19:23:34.950Z,81.56
2022-10-18T19:26:12.176Z,81.62
2022-10-18T19:28:44.485Z,81.99
2022-10-18T19:31:16.999Z,82.26
2022-10-18T19:33:59.406Z,82.32
2022-10-18T19:36:32.333Z,82.68
2022-10-18T19:39:07.699Z,83.13
2022-10-18T19:41:40.083Z,83.35
2022-10-18T19:44:11.989Z,83.61
2022-10-18T19:46:44.282Z,83.87
2022-10-18T19:49:16.861Z,84.22
2022-10-18T19:51:48.947Z,84.38
2022-10-18T19:54:20.876Z,84.61
2022-10-18T19:56:51.315Z,84.71
2022-10-18T19:59:26.373Z,84.88
2022-10-18T20:02:00.541Z,84.87
2022-10-18T20:04:34.947Z,84.96
2022-10-18T20:07:06.919Z,85.10
2022-10-18T20:09:37.200Z,85.10
2022-10-18T20:12:09.296Z,84.94
2022-10-18T20:14:39.587Z,85.20
2022-10-18T20:17:12.987Z,85.37
2022-10-18T20:19:45.128Z,85.36
2022-10-18T20:22:17.144Z,85.27
2022-10-18T20:24:47.691Z,85.18
2022-10-18T20:27:19.669Z,85.05
2022-10-18T20:29:51.742Z,85.28
2022-10-18T20:32:22.002Z,85.15
2022-10-18T20:34:53.888Z,85.34
2022-10-18T20:37:25.736Z,85.16
2022-10-18T20:39:57.663Z,85.19
2022-10-18T20:42:29.550Z,85.27
2022-10-18T20:45:01.458Z,84.99
2022-10-18T20:47:53.435Z,85.19
2022-10-18T20:50:25.299Z,85.30
2022-10-18T20:52:57.512Z,85.20
2022-10-18T20:55:31.256Z,85.61
2022-10-18T20:58:03.665Z,85.62
2022-10-18T21:00:36.154Z,85.60
2022-10-18T21:03:08.191Z,85.50
2022-10-18T21:05:38.522Z,85.50
2022-10-18T21:08:10.358Z,85.45
2022-10-18T21:10:42.196Z,85.48
2022-10-18T21:13:14.055Z,85.27
2022-10-18T21:15:54.279Z,85.40
2022-10-18T21:18:28.000Z,85.15
2022-10-18T21:21:10.241Z,85.16
2022-10-18T21:23:42.422Z,85.69
2022-10-18T21:26:17.714Z,85.71
2022-10-18T21:28:50.709Z,85.54
2022-10-18T21:31:23.941Z,85.83
2022-10-18T21:33:57.927Z,86.11
2022-10-18T21:36:31.826Z,86.15
2022-10-18T21:39:04.863Z,86.30
2022-10-18T21:41:37.840Z,86.16
2022-10-18T21:44:10.822Z,86.02
2022-10-18T21:46:44.103Z,85.98
2022-10-18T21:49:16.654Z,85.92
2022-10-18T21:51:48.552Z,85.53
2022-10-18T21:54:20.591Z,85.28
2022-10-18T21:56:52.750Z,85.29
2022-10-18T21:59:24.316Z,85.40
2022-10-18T22:01:56.407Z,85.42
2022-10-18T22:04:28.281Z,85.48
2022-10-18T22:06:59.536Z,85.68
2022-10-18T22:09:31.759Z,85.92
2022-10-18T22:12:02.822Z,85.97
2022-10-18T22:14:35.184Z,85.85
2022-10-18T22:17:07.013Z,85.98
2022-10-18T22:19:38.871Z,86.21
2022-10-18T22:22:10.898Z,86.25
2022-10-18T22:24:41.276Z,86.19
2022-10-18T22:27:13.129Z,86.43
2022-10-18T22:29:45.026Z,86.59
2022-10-18T22:32:15.442Z,86.23
2022-10-18T22:34:47.550Z,86.35
2022-10-18T22:37:17.801Z,86.44
2022-10-18T22:39:49.835Z,86.44
2022-10-18T22:42:20.181Z,86.24
2022-10-18T22:44:52.203Z,86.14
2022-10-18T22:47:24.295Z,85.78
2022-10-18T22:49:56.339Z,85.82
2022-10-18T22:52:28.394Z,86.01
2022-10-18T22:55:00.276Z,85.94
2022-10-18T22:57:32.876Z,85.98
2022-10-18T23:00:05.577Z,85.97
2022-10-18T23:02:37.879Z,86.07
2022-10-18T23:05:11.399Z,86.38
2022-10-18T23:07:43.189Z,86.29
2022-10-18T23:10:15.133Z,86.17
2022-10-18T23:12:45.610Z,86.21
2022-10-18T23:15:17.861Z,86.41
2022-10-18T23:17:50.119Z,86.70
2022-10-18T23:20:22.090Z,86.71
2022-10-18T23:22:52.366Z,87.19
2022-10-18T23:25:24.337Z,87.41
2022-10-18T23:27:56.370Z,87.46
2022-10-18T23:30:26.671Z,87.37
2022-10-18T23:32:58.690Z,87.42
2022-10-18T23:35:29.929Z,87.40
2022-10-18T23:38:01.775Z,87.01
2022-10-18T23:40:33.682Z,87.26
2022-10-18T23:43:05.662Z,87.15
2022-10-18T23:45:36.055Z,87.50
2022-10-18T23:48:08.590Z,87.60
2022-10-18T23:50:40.418Z,87.85
2022-10-18T23:53:12.438Z,87.95
2022-10-18T23:55:49.636Z,88.12
2022-10-18T23:58:21.558Z,88.66
